Search for airport 
image banner adimage banner adimage banner ad
image banner ad

3PN1 - Ashlawn

Located in Clifford, United States

ICAO - 3PN1, IATA -

Data provided by Airmate  

General information

Coordinates: N41°37'19" W75°35'47"
Elevation is 1511 feet MSL.
Magnetic variation is -12° East
View others Airports in Pennsylvania

Operational data

Special qualification required
Current time UTC:
Current local time:
Weather at : KAVP - Wilkes-Barre/Scranton Intl ( 33 km )
METAR: KAVP 092159Z 04003KT 5SM -RA BR FEW006 BKN040 OVC050 08/06 A2992 RMK AO2 P0000 T00780061
TAF: KAVP 092108Z 0921/1018 VRB04KT 5SM -RA BKN009 OVC035 FM100000 12005KT 2SM -RA BR OVC008 FM100600 35005KT P6SM OVC008 FM101300 31009KT P6SM SCT008 OVC015 FM101600 32008KT P6SM SCT015 BKN035
View NOTAMs / SUP AIP / TFR affecting this airport [VIEW]
Communications frequencies: [VIEW]

Runways:

RWY identifierQFULength (ft)Width (ft)SurfaceLDA (ft)
15180060GRASS
33180060GRASS

Airport contact information

Address: Clifford United States

Satellite view of 3PN1